sensor_id;sensor_type;location;lat;lon;timestamp;noise_LAeq;noise_LA_min;noise_LA_max;noise_LA01;noise_LA95
71020;Laerm;58902;51.436;5.980;2022-10-15T00:00:05;32.24;31.20;33.47;;
71020;Laerm;58902;51.436;5.980;2022-10-15T00:00:16;40.29;31.48;52.26;;
71020;Laerm;58902;51.436;5.980;2022-10-15T00:00:26;34.28;29.98;42.67;;
71020;Laerm;58902;51.436;5.980;2022-10-15T00:00:37;31.24;30.02;32.69;;
71020;Laerm;58902;51.436;5.980;2022-10-15T00:00:47;31.13;29.32;40.85;;
71020;Laerm;58902;51.436;5.980;2022-10-15T00:01:11;30.74;29.32;40.83;;
71020;Laerm;58902;51.436;5.980;2022-10-15T00:01:22;30.67;29.05;40.31;;
71020;Laerm;58902;51.436;5.980;2022-10-15T00:01:32;30.99;29.79;35.09;;
71020;Laerm;58902;51.436;5.980;2022-10-15T00:01:43;30.94;29.58;40.77;;
71020;Laerm;58902;51.436;5.980;2022-10-15T00:01:53;30.94;29.82;32.55;;
71020;Laerm;58902;51.436;5.980;2022-10-15T00:02:03;34.48;30.49;41.02;;
71020;Laerm;58902;51.436;5.980;2022-10-15T00:02:14;37.85;32.77;41.93;;
71020;Laerm;58902;51.436;5.980;2022-10-15T00:02:24;34.46;31.50;38.34;;
71020;Laerm;58902;51.436;5.980;2022-10-15T00:02:34;32.81;31.30;35.78;;
71020;Laerm;58902;51.436;5.980;2022-10-15T00:02:45;34.32;31.49;40.20;;
71020;Laerm;58902;51.436;5.980;2022-10-15T00:02:55;41.50;33.79;47.56;;
71020;Laerm;58902;51.436;5.980;2022-10-15T00:03:05;42.21;38.10;45.11;;
71020;Laerm;58902;51.436;5.980;2022-10-15T00:03:16;38.97;34.89;44.26;;
71020;Laerm;58902;51.436;5.980;2022-10-15T00:03:26;36.63;30.59;40.84;;
71020;Laerm;58902;51.436;5.980;2022-10-15T00:03:38;35.28;31.44;40.48;;
71020;Laerm;58902;51.436;5.980;2022-10-15T00:03:48;33.03;29.91;43.58;;
71020;Laerm;58902;51.436;5.980;2022-10-15T00:03:59;30.50;28.94;42.83;;
71020;Laerm;58902;51.436;5.980;2022-10-15T00:04:09;30.07;28.73;34.08;;
71020;Laerm;58902;51.436;5.980;2022-10-15T00:04:20;30.25;28.82;36.62;;
71020;Laerm;58902;51.436;5.980;2022-10-15T00:04:30;30.63;28.75;45.84;;
71020;Laerm;58902;51.436;5.980;2022-10-15T00:04:40;29.59;28.09;31.81;;
71020;Laerm;58902;51.436;5.980;2022-10-15T00:04:51;29.75;28.38;34.56;;
71020;Laerm;58902;51.436;5.980;2022-10-15T00:05:01;29.83;28.73;31.54;;
71020;Laerm;58902;51.436;5.980;2022-10-15T00:05:11;30.09;28.36;42.32;;
71020;Laerm;58902;51.436;5.980;2022-10-15T00:05:22;29.71;28.31;32.62;;
71020;Laerm;58902;51.436;5.980;2022-10-15T00:05:35;29.31;28.24;32.15;;
71020;Laerm;58902;51.436;5.980;2022-10-15T00:05:45;29.21;28.25;31.41;;
71020;Laerm;58902;51.436;5.980;2022-10-15T00:05:55;30.94;28.00;36.30;;
71020;Laerm;58902;51.436;5.980;2022-10-15T00:06:07;38.14;33.05;41.99;;
71020;Laerm;58902;51.436;5.980;2022-10-15T00:06:18;31.74;28.73;35.24;;
71020;Laerm;58902;51.436;5.980;2022-10-15T00:06:29;30.15;28.48;33.51;;
71020;Laerm;58902;51.436;5.980;2022-10-15T00:06:39;29.32;28.18;33.00;;
71020;Laerm;58902;51.436;5.980;2022-10-15T00:06:49;29.76;28.47;35.42;;
71020;Laerm;58902;51.436;5.980;2022-10-15T00:07:01;29.61;28.49;32.25;;
71020;Laerm;58902;51.436;5.980;2022-10-15T00:07:11;31.31;28.52;35.59;;
71020;Laerm;58902;51.436;5.980;2022-10-15T00:07:22;31.95;30.01;34.68;;
71020;Laerm;58902;51.436;5.980;2022-10-15T00:07:32;31.40;29.64;36.69;;
71020;Laerm;58902;51.436;5.980;2022-10-15T00:07:42;31.19;29.08;33.23;;
71020;Laerm;58902;51.436;5.980;2022-10-15T00:07:53;30.63;29.30;34.64;;
71020;Laerm;58902;51.436;5.980;2022-10-15T00:08:04;30.94;29.50;35.62;;
71020;Laerm;58902;51.436;5.980;2022-10-15T00:08:15;30.38;29.05;34.08;;
71020;Laerm;58902;51.436;5.980;2022-10-15T00:08:25;30.33;29.01;34.52;;
71020;Laerm;58902;51.436;5.980;2022-10-15T00:08:36;29.96;28.90;33.18;;
71020;Laerm;58902;51.436;5.980;2022-10-15T00:08:46;31.28;29.31;35.64;;
71020;Laerm;58902;51.436;5.980;2022-10-15T00:08:57;30.98;29.32;33.40;;
71020;Laerm;58902;51.436;5.980;2022-10-15T00:09:07;30.73;28.75;34.37;;
71020;Laerm;58902;51.436;5.980;2022-10-15T00:09:18;30.04;28.81;32.59;;
71020;Laerm;58902;51.436;5.980;2022-10-15T00:09:28;30.46;29.21;33.02;;
71020;Laerm;58902;51.436;5.980;2022-10-15T00:09:38;30.59;29.42;32.45;;
71020;Laerm;58902;51.436;5.980;2022-10-15T00:09:49;30.69;29.43;32.88;;
71020;Laerm;58902;51.436;5.980;2022-10-15T00:09:59;30.65;29.18;32.43;;
71020;Laerm;58902;51.436;5.980;2022-10-15T00:10:09;30.39;28.86;31.89;;
71020;Laerm;58902;51.436;5.980;2022-10-15T00:10:20;29.58;28.30;32.54;;
71020;Laerm;58902;51.436;5.980;2022-10-15T00:10:31;29.64;28.12;33.90;;
71020;Laerm;58902;51.436;5.980;2022-10-15T00:10:44;29.89;28.70;33.29;;
71020;Laerm;58902;51.436;5.980;2022-10-15T00:10:54;29.70;28.38;31.20;;
71020;Laerm;58902;51.436;5.980;2022-10-15T00:11:06;29.93;28.51;33.88;;
71020;Laerm;58902;51.436;5.980;2022-10-15T00:11:18;30.27;28.74;32.59;;
71020;Laerm;58902;51.436;5.980;2022-10-15T00:11:31;30.13;28.68;34.14;;
71020;Laerm;58902;51.436;5.980;2022-10-15T00:11:42;30.13;28.91;32.85;;
71020;Laerm;58902;51.436;5.980;2022-10-15T00:11:52;30.78;29.44;32.31;;
71020;Laerm;58902;51.436;5.980;2022-10-15T00:12:02;31.12;29.92;33.53;;
71020;Laerm;58902;51.436;5.980;2022-10-15T00:12:13;31.18;29.23;33.90;;
71020;Laerm;58902;51.436;5.980;2022-10-15T00:12:23;32.06;29.91;34.03;;
71020;Laerm;58902;51.436;5.980;2022-10-15T00:12:34;31.12;29.75;36.17;;
71020;Laerm;58902;51.436;5.980;2022-10-15T00:12:44;32.88;29.40;36.14;;
71020;Laerm;58902;51.436;5.980;2022-10-15T00:12:55;35.06;33.99;36.02;;
71020;Laerm;58902;51.436;5.980;2022-10-15T00:13:05;35.22;34.23;36.43;;
71020;Laerm;58902;51.436;5.980;2022-10-15T00:13:15;34.14;29.72;41.01;;
71020;Laerm;58902;51.436;5.980;2022-10-15T00:13:26;30.85;29.71;34.59;;
71020;Laerm;58902;51.436;5.980;2022-10-15T00:13:36;30.76;29.60;32.64;;
71020;Laerm;58902;51.436;5.980;2022-10-15T00:13:47;35.02;30.02;39.60;;
71020;Laerm;58902;51.436;5.980;2022-10-15T00:13:58;34.79;33.22;36.09;;
71020;Laerm;58902;51.436;5.980;2022-10-15T00:14:09;34.41;33.17;35.53;;
71020;Laerm;58902;51.436;5.980;2022-10-15T00:14:19;34.15;33.03;35.67;;
71020;Laerm;58902;51.436;5.980;2022-10-15T00:14:30;34.75;32.76;36.10;;
71020;Laerm;58902;51.436;5.980;2022-10-15T00:14:40;36.08;35.06;37.90;;
71020;Laerm;58902;51.436;5.980;2022-10-15T00:14:50;36.07;33.18;37.09;;
71020;Laerm;58902;51.436;5.980;2022-10-15T00:15:01;32.71;29.20;41.27;;
71020;Laerm;58902;51.436;5.980;2022-10-15T00:15:14;30.29;29.26;32.29;;
71020;Laerm;58902;51.436;5.980;2022-10-15T00:15:24;30.35;29.22;33.19;;
71020;Laerm;58902;51.436;5.980;2022-10-15T00:15:35;30.29;29.19;37.07;;
71020;Laerm;58902;51.436;5.980;2022-10-15T00:15:46;30.21;29.26;32.25;;
71020;Laerm;58902;51.436;5.980;2022-10-15T00:15:56;30.29;29.19;37.93;;
71020;Laerm;58902;51.436;5.980;2022-10-15T00:16:17;33.96;29.20;40.48;;
71020;Laerm;58902;51.436;5.980;2022-10-15T00:16:28;35.97;34.95;37.30;;
71020;Laerm;58902;51.436;5.980;2022-10-15T00:16:38;34.27;29.87;36.41;;
71020;Laerm;58902;51.436;5.980;2022-10-15T00:16:49;32.35;30.42;45.94;;
71020;Laerm;58902;51.436;5.980;2022-10-15T00:17:00;32.14;30.43;44.11;;
71020;Laerm;58902;51.436;5.980;2022-10-15T00:17:10;29.97;28.69;32.89;;
71020;Laerm;58902;51.436;5.980;2022-10-15T00:17:20;29.86;28.80;34.13;;
71020;Laerm;58902;51.436;5.980;2022-10-15T00:17:31;29.81;28.79;31.88;;
71020;Laerm;58902;51.436;5.980;2022-10-15T00:17:42;30.30;28.46;33.47;;
71020;Laerm;58902;51.436;5.980;2022-10-15T00:17:52;30.72;29.52;32.88;;
71020;Laerm;58902;51.436;5.980;2022-10-15T00:18:03;30.60;29.24;32.60;;
71020;Laerm;58902;51.436;5.980;2022-10-15T00:18:13;29.68;28.30;31.97;;
71020;Laerm;58902;51.436;5.980;2022-10-15T00:18:23;29.42;28.23;37.66;;
71020;Laerm;58902;51.436;5.980;2022-10-15T00:18:34;29.16;28.14;31.55;;
71020;Laerm;58902;51.436;5.980;2022-10-15T00:18:44;29.29;28.21;31.42;;
71020;Laerm;58902;51.436;5.980;2022-10-15T00:18:55;29.24;27.86;32.71;;
71020;Laerm;58902;51.436;5.980;2022-10-15T00:19:06;29.97;28.22;43.58;;
71020;Laerm;58902;51.436;5.980;2022-10-15T00:19:16;29.04;28.02;31.18;;
71020;Laerm;58902;51.436;5.980;2022-10-15T00:19:26;29.23;27.95;34.88;;
71020;Laerm;58902;51.436;5.980;2022-10-15T00:19:36;29.54;28.36;32.15;;
71020;Laerm;58902;51.436;5.980;2022-10-15T00:19:47;29.52;28.13;31.76;;
71020;Laerm;58902;51.436;5.980;2022-10-15T00:19:57;29.85;28.55;31.69;;
71020;Laerm;58902;51.436;5.980;2022-10-15T00:20:09;29.79;28.52;32.58;;
71020;Laerm;58902;51.436;5.980;2022-10-15T00:20:20;29.88;28.75;33.78;;
71020;Laerm;58902;51.436;5.980;2022-10-15T00:20:31;30.04;28.93;32.65;;
71020;Laerm;58902;51.436;5.980;2022-10-15T00:20:44;30.32;28.88;32.32;;
71020;Laerm;58902;51.436;5.980;2022-10-15T00:20:54;30.89;29.61;32.54;;
71020;Laerm;58902;51.436;5.980;2022-10-15T00:21:05;31.95;29.13;48.00;;
71020;Laerm;58902;51.436;5.980;2022-10-15T00:21:17;30.36;28.61;32.70;;
71020;Laerm;58902;51.436;5.980;2022-10-15T00:21:28;31.84;29.72;41.66;;
71020;Laerm;58902;51.436;5.980;2022-10-15T00:21:38;31.18;28.93;33.38;;
71020;Laerm;58902;51.436;5.980;2022-10-15T00:21:49;33.98;29.34;36.52;;
71020;Laerm;58902;51.436;5.980;2022-10-15T00:21:59;34.26;32.89;36.32;;
71020;Laerm;58902;51.436;5.980;2022-10-15T00:22:09;36.63;30.23;55.74;;
71020;Laerm;58902;51.436;5.980;2022-10-15T00:22:19;31.38;30.25;33.91;;
71020;Laerm;58902;51.436;5.980;2022-10-15T00:22:30;31.17;29.93;33.92;;
71020;Laerm;58902;51.436;5.980;2022-10-15T00:22:40;33.62;30.04;40.08;;
71020;Laerm;58902;51.436;5.980;2022-10-15T00:22:50;33.82;32.51;34.95;;
71020;Laerm;58902;51.436;5.980;2022-10-15T00:23:01;34.32;32.75;44.90;;
71020;Laerm;58902;51.436;5.980;2022-10-15T00:23:11;32.56;29.52;35.21;;
71020;Laerm;58902;51.436;5.980;2022-10-15T00:23:22;31.97;30.58;34.28;;
71020;Laerm;58902;51.436;5.980;2022-10-15T00:23:32;31.96;30.61;33.36;;
71020;Laerm;58902;51.436;5.980;2022-10-15T00:23:43;33.25;29.72;35.05;;
71020;Laerm;58902;51.436;5.980;2022-10-15T00:23:53;34.35;32.73;35.61;;
71020;Laerm;58902;51.436;5.980;2022-10-15T00:24:04;35.20;33.28;38.54;;
71020;Laerm;58902;51.436;5.980;2022-10-15T00:24:15;33.17;29.25;41.44;;
71020;Laerm;58902;51.436;5.980;2022-10-15T00:24:25;30.40;29.11;34.39;;
71020;Laerm;58902;51.436;5.980;2022-10-15T00:24:35;31.84;29.59;33.80;;
71020;Laerm;58902;51.436;5.980;2022-10-15T00:24:46;31.78;29.73;35.48;;
71020;Laerm;58902;51.436;5.980;2022-10-15T00:24:56;30.56;29.64;33.11;;
71020;Laerm;58902;51.436;5.980;2022-10-15T00:25:07;30.72;29.40;33.99;;
71020;Laerm;58902;51.436;5.980;2022-10-15T00:25:17;31.13;29.95;38.14;;
71020;Laerm;58902;51.436;5.980;2022-10-15T00:25:28;30.95;29.87;34.03;;
71020;Laerm;58902;51.436;5.980;2022-10-15T00:25:38;31.03;29.78;32.76;;
71020;Laerm;58902;51.436;5.980;2022-10-15T00:25:59;31.45;30.24;33.07;;
71020;Laerm;58902;51.436;5.980;2022-10-15T00:26:11;32.15;30.18;37.75;;
71020;Laerm;58902;51.436;5.980;2022-10-15T00:26:23;31.29;29.78;36.74;;
71020;Laerm;58902;51.436;5.980;2022-10-15T00:26:34;31.30;29.61;42.24;;
71020;Laerm;58902;51.436;5.980;2022-10-15T00:26:44;30.61;29.31;33.16;;
71020;Laerm;58902;51.436;5.980;2022-10-15T00:26:54;30.67;29.43;33.54;;
71020;Laerm;58902;51.436;5.980;2022-10-15T00:27:05;30.34;29.36;32.26;;
71020;Laerm;58902;51.436;5.980;2022-10-15T00:27:15;33.78;29.29;53.48;;
71020;Laerm;58902;51.436;5.980;2022-10-15T00:27:25;30.35;28.96;33.92;;
71020;Laerm;58902;51.436;5.980;2022-10-15T00:27:36;30.26;29.17;31.88;;
71020;Laerm;58902;51.436;5.980;2022-10-15T00:27:46;30.23;29.24;31.70;;
71020;Laerm;58902;51.436;5.980;2022-10-15T00:27:57;30.22;28.92;34.23;;
71020;Laerm;58902;51.436;5.980;2022-10-15T00:28:07;30.20;28.98;31.93;;
71020;Laerm;58902;51.436;5.980;2022-10-15T00:28:17;31.95;29.39;47.22;;
71020;Laerm;58902;51.436;5.980;2022-10-15T00:28:28;30.63;29.41;33.53;;
71020;Laerm;58902;51.436;5.980;2022-10-15T00:28:38;30.74;29.61;32.29;;
71020;Laerm;58902;51.436;5.980;2022-10-15T00:28:49;30.48;29.21;35.01;;
71020;Laerm;58902;51.436;5.980;2022-10-15T00:29:00;30.21;28.73;39.31;;
71020;Laerm;58902;51.436;5.980;2022-10-15T00:29:11;30.27;29.32;31.68;;
71020;Laerm;58902;51.436;5.980;2022-10-15T00:29:21;34.18;29.90;41.74;;
71020;Laerm;58902;51.436;5.980;2022-10-15T00:29:32;33.36;32.04;35.12;;
71020;Laerm;58902;51.436;5.980;2022-10-15T00:29:42;33.85;31.74;37.81;;
71020;Laerm;58902;51.436;5.980;2022-10-15T00:29:52;32.88;29.33;41.30;;
71020;Laerm;58902;51.436;5.980;2022-10-15T00:30:03;30.56;28.92;39.80;;
71020;Laerm;58902;51.436;5.980;2022-10-15T00:30:13;30.04;28.74;32.43;;
71020;Laerm;58902;51.436;5.980;2022-10-15T00:30:24;30.09;28.70;33.43;;
71020;Laerm;58902;51.436;5.980;2022-10-15T00:30:34;30.30;29.17;32.91;;
71020;Laerm;58902;51.436;5.980;2022-10-15T00:30:45;33.73;29.72;39.98;;
71020;Laerm;58902;51.436;5.980;2022-10-15T00:31:02;34.22;32.09;48.75;;
71020;Laerm;58902;51.436;5.980;2022-10-15T00:31:13;33.23;31.64;34.79;;
71020;Laerm;58902;51.436;5.980;2022-10-15T00:31:25;33.25;32.14;35.47;;
71020;Laerm;58902;51.436;5.980;2022-10-15T00:31:36;33.50;31.96;43.26;;
71020;Laerm;58902;51.436;5.980;2022-10-15T00:31:46;31.57;29.55;34.39;;
71020;Laerm;58902;51.436;5.980;2022-10-15T00:31:56;31.34;30.15;33.37;;
71020;Laerm;58902;51.436;5.980;2022-10-15T00:32:07;38.85;30.17;52.42;;
71020;Laerm;58902;51.436;5.980;2022-10-15T00:32:17;30.40;28.88;36.51;;
71020;Laerm;58902;51.436;5.980;2022-10-15T00:32:28;29.93;28.89;32.90;;
71020;Laerm;58902;51.436;5.980;2022-10-15T00:32:39;29.76;28.56;31.35;;
71020;Laerm;58902;51.436;5.980;2022-10-15T00:32:49;29.57;28.49;33.05;;
71020;Laerm;58902;51.436;5.980;2022-10-15T00:32:59;29.54;28.41;31.18;;
71020;Laerm;58902;51.436;5.980;2022-10-15T00:33:10;29.65;28.52;31.35;;
71020;Laerm;58902;51.436;5.980;2022-10-15T00:33:20;29.79;28.54;33.84;;
71020;Laerm;58902;51.436;5.980;2022-10-15T00:33:32;29.55;28.36;33.52;;
71020;Laerm;58902;51.436;5.980;2022-10-15T00:33:42;29.69;28.42;31.95;;
71020;Laerm;58902;51.436;5.980;2022-10-15T00:33:55;29.19;28.31;31.75;;
71020;Laerm;58902;51.436;5.980;2022-10-15T00:34:05;29.28;28.12;32.58;;
71020;Laerm;58902;51.436;5.980;2022-10-15T00:34:16;29.91;28.58;32.11;;
71020;Laerm;58902;51.436;5.980;2022-10-15T00:34:26;30.23;28.93;36.55;;
71020;Laerm;58902;51.436;5.980;2022-10-15T00:34:36;30.31;29.17;32.02;;
71020;Laerm;58902;51.436;5.980;2022-10-15T00:34:47;31.09;29.40;33.05;;
71020;Laerm;58902;51.436;5.980;2022-10-15T00:34:57;31.56;30.45;36.38;;
71020;Laerm;58902;51.436;5.980;2022-10-15T00:35:07;31.91;30.52;33.46;;
71020;Laerm;58902;51.436;5.980;2022-10-15T00:35:18;30.62;29.04;37.46;;
71020;Laerm;58902;51.436;5.980;2022-10-15T00:35:28;30.35;28.96;37.85;;
71020;Laerm;58902;51.436;5.980;2022-10-15T00:35:38;29.94;28.76;32.49;;
71020;Laerm;58902;51.436;5.980;2022-10-15T00:35:56;31.40;29.33;34.03;;
71020;Laerm;58902;51.436;5.980;2022-10-15T00:36:08;32.11;30.29;33.88;;
71020;Laerm;58902;51.436;5.980;2022-10-15T00:36:20;33.16;29.75;36.02;;
71020;Laerm;58902;51.436;5.980;2022-10-15T00:36:32;34.21;32.75;35.59;;
71020;Laerm;58902;51.436;5.980;2022-10-15T00:36:43;35.05;30.48;42.56;;
71020;Laerm;58902;51.436;5.980;2022-10-15T00:36:53;38.31;30.22;44.30;;
71020;Laerm;58902;51.436;5.980;2022-10-15T00:37:03;40.99;33.15;44.11;;
71020;Laerm;58902;51.436;5.980;2022-10-15T00:37:14;35.95;32.27;41.61;;
71020;Laerm;58902;51.436;5.980;2022-10-15T00:37:26;36.29;34.24;37.85;;
71020;Laerm;58902;51.436;5.980;2022-10-15T00:37:36;36.92;34.51;38.74;;
71020;Laerm;58902;51.436;5.980;2022-10-15T00:37:47;48.39;36.37;59.61;;
71020;Laerm;58902;51.436;5.980;2022-10-15T00:37:57;72.58;59.36;77.61;;
71020;Laerm;58902;51.436;5.980;2022-10-15T00:38:07;72.56;67.33;77.37;;
71020;Laerm;58902;51.436;5.980;2022-10-15T00:38:18;62.78;42.13;70.66;;
71020;Laerm;58902;51.436;5.980;2022-10-15T00:38:28;40.22;35.40;43.65;;
71020;Laerm;58902;51.436;5.980;2022-10-15T00:38:39;33.53;30.65;39.79;;
71020;Laerm;58902;51.436;5.980;2022-10-15T00:38:49;31.52;30.11;35.51;;
71020;Laerm;58902;51.436;5.980;2022-10-15T00:39:00;31.67;29.80;34.06;;
71020;Laerm;58902;51.436;5.980;2022-10-15T00:39:11;30.49;29.09;33.10;;
71020;Laerm;58902;51.436;5.980;2022-10-15T00:39:21;30.24;28.62;36.69;;
71020;Laerm;58902;51.436;5.980;2022-10-15T00:39:32;30.39;29.19;32.42;;
71020;Laerm;58902;51.436;5.980;2022-10-15T00:39:42;29.85;28.58;32.24;;
71020;Laerm;58902;51.436;5.980;2022-10-15T00:39:53;29.29;28.41;31.70;;
71020;Laerm;58902;51.436;5.980;2022-10-15T00:40:03;29.44;28.22;31.41;;
71020;Laerm;58902;51.436;5.980;2022-10-15T00:40:14;29.73;28.38;32.99;;
71020;Laerm;58902;51.436;5.980;2022-10-15T00:40:24;30.84;29.21;34.14;;
71020;Laerm;58902;51.436;5.980;2022-10-15T00:40:35;30.71;29.43;32.42;;
71020;Laerm;58902;51.436;5.980;2022-10-15T00:40:45;30.85;28.70;33.35;;
71020;Laerm;58902;51.436;5.980;2022-10-15T00:40:56;31.58;29.77;33.82;;
71020;Laerm;58902;51.436;5.980;2022-10-15T00:41:07;31.40;30.26;33.04;;
71020;Laerm;58902;51.436;5.980;2022-10-15T00:41:21;31.61;29.59;34.87;;
71020;Laerm;58902;51.436;5.980;2022-10-15T00:41:33;33.65;32.02;35.32;;
71020;Laerm;58902;51.436;5.980;2022-10-15T00:41:44;34.28;31.85;42.17;;
71020;Laerm;58902;51.436;5.980;2022-10-15T00:41:54;32.19;29.68;37.53;;
71020;Laerm;58902;51.436;5.980;2022-10-15T00:42:05;32.22;30.70;33.79;;
71020;Laerm;58902;51.436;5.980;2022-10-15T00:42:15;31.24;29.55;33.86;;
71020;Laerm;58902;51.436;5.980;2022-10-15T00:42:26;30.65;29.51;32.78;;
71020;Laerm;58902;51.436;5.980;2022-10-15T00:42:36;30.89;29.95;35.19;;
71020;Laerm;58902;51.436;5.980;2022-10-15T00:42:47;30.99;29.75;32.75;;
71020;Laerm;58902;51.436;5.980;2022-10-15T00:42:57;30.87;28.94;32.69;;
71020;Laerm;58902;51.436;5.980;2022-10-15T00:43:09;30.42;29.22;31.99;;
71020;Laerm;58902;51.436;5.980;2022-10-15T00:43:40;30.46;29.12;36.24;;
71020;Laerm;58902;51.436;5.980;2022-10-15T00:43:52;30.78;29.26;32.62;;
71020;Laerm;58902;51.436;5.980;2022-10-15T00:44:56;31.34;29.95;32.91;;
71020;Laerm;58902;51.436;5.980;2022-10-15T00:45:08;31.38;29.63;33.95;;
71020;Laerm;58902;51.436;5.980;2022-10-15T00:45:20;31.04;29.32;33.62;;
71020;Laerm;58902;51.436;5.980;2022-10-15T00:45:30;30.54;29.08;32.48;;
71020;Laerm;58902;51.436;5.980;2022-10-15T00:45:41;30.58;29.01;32.84;;
71020;Laerm;58902;51.436;5.980;2022-10-15T00:45:53;30.46;29.22;32.64;;
71020;Laerm;58902;51.436;5.980;2022-10-15T00:46:04;30.57;29.38;32.16;;
71020;Laerm;58902;51.436;5.980;2022-10-15T00:46:32;30.61;28.98;33.50;;
71020;Laerm;58902;51.436;5.980;2022-10-15T00:46:44;30.38;28.85;41.20;;
71020;Laerm;58902;51.436;5.980;2022-10-15T00:47:19;31.29;29.17;37.07;;
71020;Laerm;58902;51.436;5.980;2022-10-15T00:47:44;30.25;29.01;33.63;;
71020;Laerm;58902;51.436;5.980;2022-10-15T00:47:54;30.11;28.37;32.48;;
71020;Laerm;58902;51.436;5.980;2022-10-15T00:48:05;30.31;28.51;40.59;;
71020;Laerm;58902;51.436;5.980;2022-10-15T00:48:17;29.83;28.10;40.99;;
71020;Laerm;58902;51.436;5.980;2022-10-15T00:48:27;29.39;28.20;30.96;;
71020;Laerm;58902;51.436;5.980;2022-10-15T00:48:39;29.49;28.32;33.01;;
71020;Laerm;58902;51.436;5.980;2022-10-15T00:48:52;29.36;28.21;31.28;;
71020;Laerm;58902;51.436;5.980;2022-10-15T00:49:21;29.46;27.89;33.94;;
71020;Laerm;58902;51.436;5.980;2022-10-15T00:49:34;29.18;27.79;31.29;;
71020;Laerm;58902;51.436;5.980;2022-10-15T00:50:01;29.43;28.22;30.57;;
71020;Laerm;58902;51.436;5.980;2022-10-15T00:50:19;29.51;28.35;37.24;;
71020;Laerm;58902;51.436;5.980;2022-10-15T00:50:30;29.63;28.23;41.18;;
71020;Laerm;58902;51.436;5.980;2022-10-15T00:50:41;30.24;28.33;45.71;;
71020;Laerm;58902;51.436;5.980;2022-10-15T00:50:52;29.89;28.61;33.80;;
71020;Laerm;58902;51.436;5.980;2022-10-15T00:51:02;31.32;28.55;48.03;;
71020;Laerm;58902;51.436;5.980;2022-10-15T00:51:13;29.97;28.79;31.96;;
71020;Laerm;58902;51.436;5.980;2022-10-15T00:51:25;31.01;29.54;33.81;;
71020;Laerm;58902;51.436;5.980;2022-10-15T00:51:41;34.21;29.28;56.22;;
71020;Laerm;58902;51.436;5.980;2022-10-15T00:51:55;31.10;28.93;43.09;;
71020;Laerm;58902;51.436;5.980;2022-10-15T00:52:11;30.56;29.13;31.74;;
71020;Laerm;58902;51.436;5.980;2022-10-15T00:52:24;30.84;29.27;33.39;;
71020;Laerm;58902;51.436;5.980;2022-10-15T00:52:38;30.54;28.67;36.45;;
71020;Laerm;58902;51.436;5.980;2022-10-15T00:53:04;32.83;31.56;35.46;;
71020;Laerm;58902;51.436;5.980;2022-10-15T00:53:15;31.90;29.32;34.14;;
71020;Laerm;58902;51.436;5.980;2022-10-15T00:53:26;30.33;28.95;31.88;;
71020;Laerm;58902;51.436;5.980;2022-10-15T00:53:36;30.35;29.26;32.10;;
71020;Laerm;58902;51.436;5.980;2022-10-15T00:53:47;30.55;29.23;32.03;;
71020;Laerm;58902;51.436;5.980;2022-10-15T00:53:57;30.66;29.54;32.37;;
71020;Laerm;58902;51.436;5.980;2022-10-15T00:54:08;30.87;29.48;34.17;;
71020;Laerm;58902;51.436;5.980;2022-10-15T00:54:19;30.38;28.78;35.58;;
71020;Laerm;58902;51.436;5.980;2022-10-15T00:54:33;30.22;29.13;31.54;;
71020;Laerm;58902;51.436;5.980;2022-10-15T00:54:51;30.18;28.88;32.86;;
71020;Laerm;58902;51.436;5.980;2022-10-15T00:55:05;31.00;29.61;34.33;;
71020;Laerm;58902;51.436;5.980;2022-10-15T00:55:18;31.06;29.10;33.88;;
71020;Laerm;58902;51.436;5.980;2022-10-15T00:55:32;34.39;32.79;35.77;;
71020;Laerm;58902;51.436;5.980;2022-10-15T00:55:43;35.31;33.08;41.62;;
71020;Laerm;58902;51.436;5.980;2022-10-15T00:55:53;31.45;29.83;34.61;;
71020;Laerm;58902;51.436;5.980;2022-10-15T00:56:04;31.44;29.98;33.15;;
71020;Laerm;58902;51.436;5.980;2022-10-15T00:56:15;31.57;29.95;33.69;;
71020;Laerm;58902;51.436;5.980;2022-10-15T00:56:26;31.10;29.25;37.41;;
71020;Laerm;58902;51.436;5.980;2022-10-15T00:56:40;30.93;29.49;33.08;;
71020;Laerm;58902;51.436;5.980;2022-10-15T00:56:54;33.68;30.13;46.75;;
71020;Laerm;58902;51.436;5.980;2022-10-15T00:57:05;32.76;31.58;41.07;;
71020;Laerm;58902;51.436;5.980;2022-10-15T00:57:16;33.17;31.36;37.74;;
71020;Laerm;58902;51.436;5.980;2022-10-15T00:57:27;32.48;31.25;34.40;;
71020;Laerm;58902;51.436;5.980;2022-10-15T00:57:37;32.74;31.60;34.03;;
71020;Laerm;58902;51.436;5.980;2022-10-15T00:57:49;33.05;31.31;37.82;;
71020;Laerm;58902;51.436;5.980;2022-10-15T00:58:01;32.21;31.22;34.67;;
71020;Laerm;58902;51.436;5.980;2022-10-15T00:58:15;32.00;29.94;35.84;;
71020;Laerm;58902;51.436;5.980;2022-10-15T00:58:27;30.51;29.42;32.80;;
71020;Laerm;58902;51.436;5.980;2022-10-15T00:58:39;30.63;29.25;35.58;;
71020;Laerm;58902;51.436;5.980;2022-10-15T00:58:50;30.98;29.44;33.64;;
71020;Laerm;58902;51.436;5.980;2022-10-15T00:59:01;30.70;29.32;34.04;;
71020;Laerm;58902;51.436;5.980;2022-10-15T00:59:13;30.46;28.99;34.16;;
71020;Laerm;58902;51.436;5.980;2022-10-15T00:59:25;30.17;29.00;35.48;;
71020;Laerm;58902;51.436;5.980;2022-10-15T00:59:38;30.32;28.77;36.17;;
71020;Laerm;58902;51.436;5.980;2022-10-15T00:59:51;30.72;29.25;32.56;;
71020;Laerm;58902;51.436;5.980;2022-10-15T01:00:07;30.44;29.24;32.94;;
71020;Laerm;58902;51.436;5.980;2022-10-15T01:00:18;40.72;29.56;51.92;;
71020;Laerm;58902;51.436;5.980;2022-10-15T01:00:29;30.65;29.43;34.29;;
71020;Laerm;58902;51.436;5.980;2022-10-15T01:00:39;30.51;29.33;36.68;;
71020;Laerm;58902;51.436;5.980;2022-10-15T01:00:50;33.52;29.15;41.42;;
71020;Laerm;58902;51.436;5.980;2022-10-15T01:01:00;32.82;31.61;34.19;;
71020;Laerm;58902;51.436;5.980;2022-10-15T01:01:11;32.76;31.73;35.63;;
71020;Laerm;58902;51.436;5.980;2022-10-15T01:01:22;31.87;29.67;34.28;;
71020;Laerm;58902;51.436;5.980;2022-10-15T01:01:34;31.35;30.12;35.12;;
71020;Laerm;58902;51.436;5.980;2022-10-15T01:01:45;31.19;29.52;32.93;;
71020;Laerm;58902;51.436;5.980;2022-10-15T01:01:55;30.76;29.19;33.60;;
71020;Laerm;58902;51.436;5.980;2022-10-15T01:02:08;30.43;29.33;33.52;;
71020;Laerm;58902;51.436;5.980;2022-10-15T01:02:19;30.44;28.98;33.47;;
71020;Laerm;58902;51.436;5.980;2022-10-15T01:02:30;29.81;28.49;32.46;;
71020;Laerm;58902;51.436;5.980;2022-10-15T01:02:41;29.65;27.92;33.08;;
71020;Laerm;58902;51.436;5.980;2022-10-15T01:02:54;30.25;28.79;40.85;;
71020;Laerm;58902;51.436;5.980;2022-10-15T01:03:05;30.03;28.60;38.50;;
71020;Laerm;58902;51.436;5.980;2022-10-15T01:03:15;29.99;28.83;32.37;;
71020;Laerm;58902;51.436;5.980;2022-10-15T01:03:25;29.87;28.47;33.58;;
71020;Laerm;58902;51.436;5.980;2022-10-15T01:03:36;29.54;28.52;32.29;;
71020;Laerm;58902;51.436;5.980;2022-10-15T01:03:46;29.33;28.15;31.81;;
71020;Laerm;58902;51.436;5.980;2022-10-15T01:03:56;29.30;28.20;36.47;;
71020;Laerm;58902;51.436;5.980;2022-10-15T01:04:07;29.29;27.96;37.37;;
71020;Laerm;58902;51.436;5.980;2022-10-15T01:04:18;29.50;28.10;32.72;;
71020;Laerm;58902;51.436;5.980;2022-10-15T01:04:28;29.36;27.91;36.54;;
71020;Laerm;58902;51.436;5.980;2022-10-15T01:04:40;29.06;28.13;30.91;;
71020;Laerm;58902;51.436;5.980;2022-10-15T01:04:51;29.22;28.18;31.29;;
71020;Laerm;58902;51.436;5.980;2022-10-15T01:05:02;29.23;28.02;32.26;;